Time;durP1;ratioP1;P1;durP2;ratioP2;P2;SDS_P1;SDS_P2;PMS_P1;PMS_P2;Temp;Humidity;BMP_temperature;BMP_pressure;BME280_temperature;BME280_humidity;BME280_pressure;Samples;Min_cycle;Max_cycle;Signal;HPM_P1;HPM_P2
2022/06/05 00:00:29;;;;;;;3.20;2.90;;;;;;;23.86;53.22;99835.30;1846988;77;21566;-66
2022/06/05 00:03:13;;;;;;;5.53;3.25;;;;;;;23.85;53.21;99836.35;1855920;77;21017;-65
2022/06/05 00:06:05;;;;;;;3.77;3.33;;;;;;;23.86;53.11;99844.79;1859363;77;20969;-65
2022/06/05 00:09:13;;;;;;;3.45;3.15;;;;;;;23.85;53.05;99848.56;1859577;77;21473;-65
2022/06/05 00:11:53;;;;;;;4.58;3.00;;;;;;;23.83;53.01;99850.70;1845998;77;20958;-67
2022/06/05 00:14:21;;;;;;;3.35;2.85;;;;;;;23.80;53.11;99850.69;1814222;77;21085;-66
2022/06/05 00:16:48;;;;;;;4.55;3.50;;;;;;;23.79;53.12;99838.73;1824228;77;20987;-66
2022/06/05 00:19:14;;;;;;;4.00;3.10;;;;;;;23.77;52.96;99830.80;1824535;77;21029;-66
2022/06/05 00:21:41;;;;;;;3.02;2.67;;;;;;;23.77;52.77;99829.45;1838734;77;21145;-67
2022/06/05 00:24:08;;;;;;;4.00;3.60;;;;;;;23.77;52.64;99817.78;1831705;77;20999;-66
2022/06/05 00:26:47;;;;;;;3.90;3.02;;;;;;;23.76;52.53;99814.27;1847611;77;21049;-66
2022/06/05 00:29:19;;;;;;;3.50;3.15;;;;;;;23.78;52.35;99812.63;1829700;77;21032;-66
2022/06/05 00:31:56;;;;;;;3.05;2.75;;;;;;;23.77;52.23;99800.97;1835933;77;21006;-66
2022/06/05 00:34:22;;;;;;;3.58;3.27;;;;;;;23.77;52.09;99796.91;1839926;77;21141;-66
2022/06/05 00:37:18;;;;;;;3.45;2.95;;;;;;;23.77;52.03;99796.09;1820761;77;21025;-65
2022/06/05 00:40:18;;;;;;;3.42;3.12;;;;;;;23.78;51.93;99797.71;1834122;77;21076;-65
2022/06/05 00:42:45;;;;;;;3.02;2.72;;;;;;;23.77;51.81;99793.38;1838030;77;21048;-66
2022/06/05 00:45:13;;;;;;;3.67;3.08;;;;;;;23.75;51.75;99794.44;1859319;77;21045;-66
2022/06/05 00:47:41;;;;;;;3.45;2.90;;;;;;;23.77;51.72;99797.45;1850628;77;21117;-66
2022/06/05 00:50:18;;;;;;;3.10;2.80;;;;;;;23.77;51.69;99796.09;1833765;77;20993;-65
2022/06/05 00:52:49;;;;;;;2.98;2.77;;;;;;;23.77;51.63;99793.38;1847576;77;21521;-66
2022/06/05 00:55:16;;;;;;;6.33;3.40;;;;;;;23.77;51.59;99791.48;1836012;77;21511;-65
2022/06/05 00:57:43;;;;;;;3.25;2.87;;;;;;;23.78;51.47;99792.28;1843900;77;21533;-66
2022/06/05 01:00:19;;;;;;;3.15;2.87;;;;;;;23.78;51.52;99790.45;1827045;77;21240;-65
2022/06/05 01:02:52;;;;;;;4.03;2.83;;;;;;;23.78;51.47;99786.38;1841919;77;20998;-65
2022/06/05 01:05:20;;;;;;;3.58;3.27;;;;;;;23.80;51.41;99784.74;1859306;77;21013;-65
2022/06/05 01:07:47;;;;;;;3.22;2.83;;;;;;;23.79;51.42;99785.29;1836688;77;21053;-65
2022/06/05 01:10:14;;;;;;;3.22;3.00;;;;;;;23.79;51.37;99789.36;1857524;77;20997;-65
2022/06/05 01:13:03;;;;;;;3.00;2.80;;;;;;;23.80;51.32;99791.52;1861641;75;21747;-65
2022/06/05 01:15:53;;;;;;;3.50;3.20;;;;;;;23.81;51.32;99788.56;1862503;77;21021;-66
2022/06/05 01:18:38;;;;;;;2.92;2.72;;;;;;;23.81;51.23;99787.75;1857599;77;21077;-65
2022/06/05 01:21:29;;;;;;;3.45;2.77;;;;;;;23.80;51.15;99781.52;1846227;77;21025;-65
2022/06/05 01:24:49;;;;;;;4.58;3.05;;;;;;;23.81;51.07;99778.26;1858274;77;21002;-64
2022/06/05 01:27:19;;;;;;;4.03;2.98;;;;;;;23.79;51.05;99772.27;1849097;77;21792;-66
2022/06/05 01:29:52;;;;;;;3.58;2.80;;;;;;;23.78;50.98;99773.30;1847120;77;21005;-65
2022/06/05 01:32:45;;;;;;;3.08;2.70;;;;;;;23.78;50.93;99782.80;1831120;77;21006;-64
2022/06/05 01:35:37;;;;;;;3.08;2.75;;;;;;;23.77;50.95;99782.53;1827036;77;20962;-64
2022/06/05 01:38:15;;;;;;;3.00;2.67;;;;;;;23.77;50.96;99780.63;1840222;77;21016;-66
2022/06/05 01:40:47;;;;;;;2.55;2.25;;;;;;;23.77;50.85;99790.13;1830951;77;22198;-65
2022/06/05 01:43:22;;;;;;;2.70;2.50;;;;;;;23.75;50.81;99784.94;1841960;77;21513;-65
2022/06/05 01:45:57;;;;;;;4.10;2.50;;;;;;;23.75;50.75;99786.30;1837149;77;21006;-65
2022/06/05 01:48:29;;;;;;;2.92;2.70;;;;;;;23.75;50.80;99786.30;1840311;77;21870;-65
2022/06/05 01:50:59;;;;;;;3.67;2.35;;;;;;;23.75;50.71;99784.94;1850494;77;21001;-65
2022/06/05 01:53:36;;;;;;;2.90;2.65;;;;;;;23.76;50.73;99788.50;1857341;77;21126;-65
2022/06/05 01:56:11;;;;;;;3.50;2.58;;;;;;;23.77;50.66;99790.13;1838113;77;21080;-66
2022/06/05 01:58:41;;;;;;;3.25;2.95;;;;;;;23.76;50.60;99784.43;1792715;78;21053;-64
2022/06/05 02:01:22;;;;;;;2.65;2.45;;;;;;;23.77;50.54;99790.66;1783110;79;22118;-65
2022/06/05 02:03:54;;;;;;;2.80;2.40;;;;;;;23.77;50.46;99786.59;1778667;79;21501;-65
2022/06/05 02:06:25;;;;;;;3.85;2.60;;;;;;;23.77;50.44;99790.13;1805821;79;21144;-66
2022/06/05 02:09:03;;;;;;;2.90;2.50;;;;;;;23.77;50.39;99783.34;1764185;80;21490;-65
2022/06/05 02:11:32;;;;;;;2.62;2.42;;;;;;;23.77;50.33;99783.88;1780658;80;21012;-66
2022/06/05 02:14:05;;;;;;;3.92;2.45;;;;;;;23.78;50.30;99779.59;1780678;80;21579;-65
2022/06/05 02:16:33;;;;;;;2.67;2.47;;;;;;;23.77;50.16;99772.49;1788430;80;21025;-66
2022/06/05 02:19:03;;;;;;;2.47;2.27;;;;;;;23.78;50.09;99767.39;1821507;78;21199;-64
2022/06/05 02:21:33;;;;;;;3.00;2.70;;;;;;;23.78;50.01;99766.03;1818016;78;21529;-65
2022/06/05 02:24:00;;;;;;;2.55;2.35;;;;;;;23.77;50.04;99760.28;1808707;78;21438;-65
2022/06/05 02:26:27;;;;;;;2.87;2.50;;;;;;;23.78;50.00;99764.68;1760806;78;21624;-65
2022/06/05 02:28:53;;;;;;;2.22;2.05;;;;;;;23.78;49.94;99763.80;1801842;78;21478;-66
2022/06/05 02:31:34;;;;;;;3.05;2.25;;;;;;;23.78;49.93;99761.09;1790739;78;21202;-65
2022/06/05 02:34:40;;;;;;;3.00;2.45;;;;;;;23.79;49.89;99761.42;1773954;79;21045;-66
2022/06/05 02:37:32;;;;;;;2.52;2.33;;;;;;;23.78;49.93;99755.67;1773909;80;21127;-65
2022/06/05 02:40:13;;;;;;;3.12;2.35;;;;;;;23.79;49.94;99770.91;1766086;79;21104;-65
2022/06/05 02:43:10;;;;;;;3.17;2.75;;;;;;;23.78;49.86;99770.11;1783809;80;21009;-65
2022/06/05 02:46:02;;;;;;;2.33;2.12;;;;;;;23.78;49.86;99761.09;1778308;79;21245;-66
2022/06/05 02:48:33;;;;;;;2.62;2.22;;;;;;;23.77;49.84;99759.47;1793274;78;21009;-65
2022/06/05 02:51:26;;;;;;;2.85;2.33;;;;;;;23.77;49.84;99758.93;1804764;78;21465;-65
2022/06/05 02:53:57;;;;;;;2.87;2.60;;;;;;;23.77;49.89;99764.90;1794505;80;21500;-65
2022/06/05 02:56:26;;;;;;;2.92;2.55;;;;;;;23.75;49.84;99759.17;1825324;78;21010;-64
2022/06/05 02:58:54;;;;;;;3.00;2.40;;;;;;;23.77;49.80;99760.83;1764680;80;21112;-65
2022/06/05 03:04:10;;;;;;;2.40;2.20;;;;;;;23.77;49.77;99748.08;1764410;80;21026;-64
2022/06/05 03:06:37;;;;;;;3.60;2.10;;;;;;;23.77;49.72;99741.84;1764731;80;21052;-65
2022/06/05 03:09:05;;;;;;;3.40;2.52;;;;;;;23.78;49.62;99733.48;1793148;80;21042;-65
2022/06/05 03:11:32;;;;;;;2.50;2.30;;;;;;;23.78;49.60;99742.98;1799146;77;21263;-65
2022/06/05 03:13:59;;;;;;;2.55;2.35;;;;;;;23.79;49.58;99749.22;1819609;78;21364;-65
2022/06/05 03:16:28;;;;;;;4.40;2.40;;;;;;;23.79;49.55;99741.89;1819715;78;21557;-66
2022/06/05 03:18:55;;;;;;;2.50;2.30;;;;;;;23.80;49.55;99745.41;1811660;78;21526;-65
2022/06/05 03:21:22;;;;;;;2.83;2.00;;;;;;;23.81;49.47;99745.71;1778587;80;21013;-65
2022/06/05 03:23:49;;;;;;;2.42;2.22;;;;;;;23.81;49.49;99747.06;1798730;79;21767;-65
2022/06/05 03:26:17;;;;;;;3.60;2.40;;;;;;;23.82;49.46;99752.79;1804925;79;21002;-65
2022/06/05 03:28:43;;;;;;;2.95;2.27;;;;;;;23.83;49.59;99748.98;1787779;80;20981;-65
2022/06/05 03:31:10;;;;;;;2.47;2.10;;;;;;;23.83;49.71;99739.49;1767202;79;21066;-65
2022/06/05 03:33:37;;;;;;;2.30;2.08;;;;;;;23.83;49.80;99734.87;1794716;80;21104;-64
2022/06/05 03:36:09;;;;;;;2.37;2.15;;;;;;;23.84;49.60;99739.78;1825976;78;21149;-64
2022/06/05 03:38:36;;;;;;;2.52;2.33;;;;;;;23.85;49.41;99746.83;1796071;78;21021;-65
2022/06/05 03:41:04;;;;;;;2.20;1.95;;;;;;;23.86;49.31;99741.70;1821099;78;21072;-64
2022/06/05 03:43:32;;;;;;;2.92;2.52;;;;;;;23.86;49.35;99741.70;1819366;78;20993;-64
2022/06/05 03:46:07;;;;;;;2.50;2.30;;;;;;;23.87;49.52;99743.33;1811240;78;21048;-65
2022/06/05 03:48:34;;;;;;;2.05;1.92;;;;;;;23.86;49.65;99741.16;1756586;80;21161;-65
2022/06/05 03:51:19;;;;;;;2.58;2.37;;;;;;;23.86;49.81;99743.88;1791157;78;21109;-65
2022/06/05 03:53:46;;;;;;;4.42;2.30;;;;;;;23.86;49.95;99748.48;1797977;78;21008;-65
2022/06/05 03:56:19;;;;;;;3.70;2.80;;;;;;;23.86;50.14;99752.55;1794559;78;21044;-64
2022/06/05 03:58:48;;;;;;;2.62;2.40;;;;;;;23.85;50.33;99753.07;1831889;77;20971;-64
2022/06/05 04:01:16;;;;;;;4.22;2.83;;;;;;;23.86;50.42;99755.27;1807974;78;21130;-65
2022/06/05 04:03:43;;;;;;;2.83;2.52;;;;;;;23.86;50.43;99762.05;1806828;78;21033;-65
2022/06/05 04:06:12;;;;;;;2.90;2.60;;;;;;;23.86;50.62;99760.70;1822090;78;20994;-65
2022/06/05 04:08:39;;;;;;;4.17;2.65;;;;;;;23.85;50.69;99758.50;1808596;78;21049;-65
2022/06/05 04:11:12;;;;;;;4.67;2.83;;;;;;;23.85;50.69;99761.20;1812907;78;21054;-66
2022/06/05 04:13:39;;;;;;;2.72;2.52;;;;;;;23.86;50.95;99759.34;1783212;78;25640;-65
2022/06/05 04:16:11;;;;;;;2.40;2.20;;;;;;;23.85;50.87;99760.39;1796875;78;21017;-65
2022/06/05 04:18:38;;;;;;;2.87;2.27;;;;;;;23.85;50.93;99762.56;1792920;78;21007;-65
2022/06/05 04:21:18;;;;;;;2.87;2.40;;;;;;;23.87;51.07;99767.74;1816418;78;21046;-66
2022/06/05 04:23:45;;;;;;;2.52;2.33;;;;;;;23.86;50.58;99764.22;1816488;79;21094;-66
2022/06/05 04:26:15;;;;;;;2.80;2.27;;;;;;;23.86;50.13;99766.93;1817125;78;21149;-66
2022/06/05 04:28:42;;;;;;;4.53;2.02;;;;;;;23.87;49.95;99760.41;1793095;78;20977;-67
2022/06/05 04:31:28;;;;;;;4.08;2.12;;;;;;;23.88;50.30;99760.71;1771058;80;21163;-67
2022/06/05 04:33:57;;;;;;;2.47;2.15;;;;;;;23.88;50.91;99756.64;1802973;78;21076;-68
2022/06/05 04:36:23;;;;;;;6.30;2.35;;;;;;;23.90;51.24;99759.91;1802991;78;21006;-68
2022/06/05 04:38:50;;;;;;;2.45;2.25;;;;;;;23.92;51.46;99776.75;1797211;78;21329;-67
2022/06/05 04:41:18;;;;;;;2.92;2.47;;;;;;;23.93;51.59;99778.92;1821539;78;21569;-66
2022/06/05 04:43:46;;;;;;;3.50;2.10;;;;;;;23.96;51.70;99781.69;1821730;78;21030;-67
2022/06/05 04:46:13;;;;;;;2.00;1.90;;;;;;;23.97;51.74;99790.93;1809492;78;21009;-67
2022/06/05 04:48:39;;;;;;;6.00;2.33;;;;;;;24.00;51.82;99795.83;1820978;78;20978;-67
2022/06/05 04:51:07;;;;;;;2.98;2.30;;;;;;;24.03;51.87;99800.75;1825178;78;21132;-67
2022/06/05 04:53:34;;;;;;;2.83;2.35;;;;;;;24.07;51.90;99803.78;1825179;78;21060;-67
2022/06/05 04:56:10;;;;;;;3.50;2.47;;;;;;;24.08;51.92;99814.36;1809638;79;21030;-67
2022/06/05 04:58:37;;;;;;;2.55;2.35;;;;;;;24.11;51.93;99819.28;1827340;78;21024;-67
2022/06/05 05:01:20;;;;;;;2.20;2.00;;;;;;;24.13;51.94;99817.13;1783649;80;22025;-66
2022/06/05 05:03:47;;;;;;;2.45;2.25;;;;;;;24.16;51.94;99822.58;1795235;79;21132;-67
2022/06/05 05:06:15;;;;;;;2.62;2.40;;;;;;;24.20;51.92;99817.45;1791348;78;21040;-68
2022/06/05 05:08:43;;;;;;;2.55;2.35;;;;;;;24.22;51.96;99825.64;1786079;78;21496;-66
2022/06/05 05:11:10;;;;;;;2.50;2.10;;;;;;;24.24;51.96;99825.37;1795443;78;21125;-66
2022/06/05 05:13:36;;;;;;;2.37;2.15;;;;;;;24.25;51.96;99825.66;1795142;80;21095;-67
2022/06/05 05:16:05;;;;;;;2.65;2.45;;;;;;;24.27;51.93;99825.68;1795136;80;21843;-66
2022/06/05 05:18:32;;;;;;;2.58;2.37;;;;;;;24.30;51.92;99828.44;1780314;80;20968;-67
2022/06/05 05:21:11;;;;;;;2.45;2.25;;;;;;;24.32;51.92;99822.21;1770358;78;21025;-66
2022/06/05 05:23:38;;;;;;;3.12;2.20;;;;;;;24.34;51.90;99828.20;1792166;79;21100;-67
2022/06/05 05:26:15;;;;;;;2.75;2.17;;;;;;;24.36;51.89;99831.48;1763818;81;21541;-66
2022/06/05 05:28:42;;;;;;;2.85;2.65;;;;;;;24.39;51.90;99842.34;1785454;78;21153;-67
2022/06/05 05:31:17;;;;;;;3.55;2.98;;;;;;;24.41;51.89;99838.84;1812093;78;21025;-67
2022/06/05 05:33:43;;;;;;;3.27;2.77;;;;;;;24.42;51.88;99844.02;1793916;78;21519;-67
2022/06/05 05:36:11;;;;;;;3.65;3.35;;;;;;;24.44;51.87;99845.94;1796004;78;21029;-67
2022/06/05 05:38:38;;;;;;;3.25;2.95;;;;;;;24.46;51.85;99849.21;1765972;80;21009;-67
2022/06/05 05:43:50;;;;;;;3.47;3.10;;;;;;;24.50;51.80;99846.26;1803046;79;20973;-68
2022/06/05 05:46:17;;;;;;;3.02;2.83;;;;;;;24.52;51.79;99850.11;1791102;79;21516;-68
2022/06/05 05:48:43;;;;;;;3.40;3.10;;;;;;;24.55;51.76;99844.69;1786650;79;21061;-66
2022/06/05 05:51:14;;;;;;;3.52;3.22;;;;;;;24.55;51.76;99846.89;1776190;79;21037;-67
2022/06/05 05:53:41;;;;;;;3.05;2.65;;;;;;;24.57;51.70;99842.02;1781399;79;21408;-66
2022/06/05 05:56:10;;;;;;;3.65;2.60;;;;;;;24.59;51.72;99837.15;1786892;80;21481;-66
2022/06/05 05:58:37;;;;;;;3.40;2.90;;;;;;;24.61;51.68;99836.87;1768140;79;21534;-67
2022/06/05 06:01:07;;;;;;;3.37;3.05;;;;;;;24.63;51.65;99840.17;1749578;80;21315;-67
2022/06/05 06:03:34;;;;;;;3.42;3.12;;;;;;;24.63;51.60;99835.55;1768083;80;21017;-67
2022/06/05 06:06:01;;;;;;;4.90;3.30;;;;;;;24.65;51.58;99830.67;1776009;80;21136;-67
2022/06/05 06:08:29;;;;;;;3.40;3.10;;;;;;;24.66;51.53;99831.48;1761111;80;21037;-66
2022/06/05 06:10:55;;;;;;;3.17;2.95;;;;;;;24.67;51.52;99827.70;1760079;80;21048;-67
2022/06/05 06:13:22;;;;;;;3.02;2.80;;;;;;;24.70;51.53;99831.25;1767467;80;21052;-67
2022/06/05 06:15:50;;;;;;;4.28;3.10;;;;;;;24.71;51.50;99824.75;1785907;80;21053;-68
2022/06/05 06:18:17;;;;;;;3.10;2.83;;;;;;;24.72;51.48;99822.30;1785800;79;21149;-68
2022/06/05 06:20:45;;;;;;;3.30;3.00;;;;;;;24.75;51.42;99819.07;1782746;79;21128;-67
2022/06/05 06:23:14;;;;;;;5.95;2.98;;;;;;;24.77;51.43;99818.81;1777279;79;21501;-67
2022/06/05 06:25:41;;;;;;;4.55;3.42;;;;;;;24.78;51.39;99814.45;1771974;79;21084;-66
2022/06/05 06:28:08;;;;;;;3.33;3.05;;;;;;;24.79;51.44;99814.75;1773019;79;21052;-68
2022/06/05 06:30:35;;;;;;;3.20;2.90;;;;;;;24.83;51.36;99817.77;1784056;79;21208;-68
2022/06/05 06:33:01;;;;;;;3.05;2.75;;;;;;;24.84;51.32;99822.11;1773402;79;21057;-68
2022/06/05 06:35:28;;;;;;;3.83;3.52;;;;;;;24.85;51.28;99819.14;1772018;79;21039;-67
2022/06/05 06:37:54;;;;;;;3.40;3.10;;;;;;;24.87;51.27;99821.05;1779131;79;21072;-67
2022/06/05 06:40:21;;;;;;;3.20;2.90;;;;;;;24.89;51.25;99822.16;1749642;80;21501;-67
2022/06/05 06:42:48;;;;;;;3.22;2.92;;;;;;;24.92;51.23;99828.44;1778366;79;21366;-68
2022/06/05 06:45:15;;;;;;;3.72;3.27;;;;;;;24.94;51.20;99829.00;1772586;80;21052;-68
2022/06/05 06:47:43;;;;;;;3.67;3.37;;;;;;;24.95;51.20;99827.90;1785300;79;21064;-68
2022/06/05 06:50:09;;;;;;;2.83;2.62;;;;;;;24.98;51.20;99831.47;1787308;79;21006;-68
2022/06/05 06:52:37;;;;;;;3.47;2.95;;;;;;;25.00;51.14;99823.87;1794427;79;21023;-67
2022/06/05 06:55:07;;;;;;;3.33;3.02;;;;;;;25.02;51.08;99822.26;1783544;79;21017;-68
2022/06/05 06:57:34;;;;;;;3.50;3.02;;;;;;;25.03;51.07;99821.97;1804656;79;21497;-68
2022/06/05 07:00:00;;;;;;;3.80;3.50;;;;;;;25.04;51.11;99824.98;1824270;77;21040;-68
2022/06/05 07:02:27;;;;;;;3.95;2.90;;;;;;;25.06;51.02;99829.61;1800333;79;21069;-68
2022/06/05 07:04:53;;;;;;;3.17;2.87;;;;;;;25.08;51.01;99826.09;1804699;77;21576;-68
2022/06/05 07:07:19;;;;;;;3.20;2.90;;;;;;;25.09;51.06;99832.34;1824482;78;21080;-69
2022/06/05 07:09:47;;;;;;;3.27;2.77;;;;;;;25.11;50.99;99832.89;1822383;77;21037;-68
2022/06/05 07:12:13;;;;;;;3.12;2.92;;;;;;;25.11;50.90;99828.81;1776089;79;21084;-68
2022/06/05 07:14:40;;;;;;;3.37;2.87;;;;;;;25.12;50.89;99827.20;1782762;80;21041;-68
2022/06/05 07:17:06;;;;;;;3.30;2.52;;;;;;;25.13;50.91;99830.76;1785089;79;21041;-67
2022/06/05 07:19:34;;;;;;;3.77;2.92;;;;;;;25.15;50.87;99830.47;1793555;79;21396;-67
2022/06/05 07:22:01;;;;;;;3.12;2.80;;;;;;;25.15;50.90;99839.47;1765500;80;20986;-68
2022/06/05 07:24:28;;;;;;;4.08;2.55;;;;;;;25.15;50.84;99828.59;1798825;79;21024;-68
2022/06/05 07:26:54;;;;;;;3.33;3.10;;;;;;;25.16;50.90;99833.48;1787793;79;21045;-67
2022/06/05 07:29:21;;;;;;;3.00;2.67;;;;;;;25.16;50.95;99837.02;1805976;79;21017;-68
2022/06/05 07:31:48;;;;;;;3.45;2.75;;;;;;;25.18;50.86;99838.12;1784432;79;21132;-68
2022/06/05 07:34:14;;;;;;;3.30;2.95;;;;;;;25.17;50.88;99840.02;1773787;80;21025;-67
2022/06/05 07:36:41;;;;;;;2.60;2.40;;;;;;;25.18;50.88;99835.39;1799333;79;21029;-67
2022/06/05 07:39:08;;;;;;;3.30;3.00;;;;;;;25.18;50.79;99837.56;1779413;80;21065;-67
2022/06/05 07:41:38;;;;;;;4.22;2.87;;;;;;;25.18;50.88;99836.20;1795665;79;21528;-68
2022/06/05 07:44:06;;;;;;;4.67;2.70;;;;;;;25.19;50.86;99839.73;1785916;79;21127;-64
2022/06/05 07:46:35;;;;;;;2.83;2.52;;;;;;;25.20;50.93;99845.47;1785413;79;21126;-64
2022/06/05 07:49:01;;;;;;;3.05;2.65;;;;;;;25.18;51.05;99843.55;1775234;79;21586;-64
2022/06/05 07:54:26;;;;;;;3.72;2.62;;;;;;;25.19;51.34;99837.86;1777818;79;21057;-65
2022/06/05 07:57:03;;;;;;;3.10;2.80;;;;;;;25.21;51.38;99838.96;1773916;79;21497;-65
2022/06/05 07:59:33;;;;;;;3.15;2.70;;;;;;;25.22;51.35;99841.42;1779271;79;21485;-62
2022/06/05 08:02:04;;;;;;;3.55;3.25;;;;;;;25.22;51.31;99836.50;1795845;79;21037;-64
2022/06/05 08:04:31;;;;;;;4.17;3.15;;;;;;;25.23;51.49;99839.00;1774809;79;21021;-64
2022/06/05 08:06:59;;;;;;;3.85;2.72;;;;;;;25.23;51.59;99839.00;1767824;79;21064;-66
2022/06/05 08:09:27;;;;;;;4.05;2.75;;;;;;;25.23;51.60;99839.00;1780035;79;21136;-66
2022/06/05 08:11:55;;;;;;;7.83;3.10;;;;;;;25.24;51.74;99835.73;1771562;79;21058;-64
2022/06/05 08:14:21;;;;;;;5.42;2.65;;;;;;;25.24;52.09;99836.54;1781812;79;21528;-64
2022/06/05 08:16:49;;;;;;;4.97;2.60;;;;;;;25.24;52.34;99831.11;1771790;79;21065;-62
2022/06/05 08:19:19;;;;;;;4.97;2.77;;;;;;;25.23;52.68;99834.92;1782417;79;21372;-66
2022/06/05 08:21:47;;;;;;;4.55;3.00;;;;;;;25.23;52.97;99830.84;1769618;79;21085;-67
2022/06/05 08:24:14;;;;;;;6.80;3.15;;;;;;;25.24;53.23;99829.74;1795306;79;21197;-68
2022/06/05 08:26:41;;;;;;;4.78;3.22;;;;;;;25.25;53.40;99836.83;1786895;79;21021;-65
2022/06/05 08:29:07;;;;;;;6.20;3.12;;;;;;;25.26;53.52;99842.53;1768404;79;21021;-63
2022/06/05 08:31:35;;;;;;;3.95;3.37;;;;;;;25.27;53.62;99838.75;1782132;79;21072;-66
2022/06/05 08:34:02;;;;;;;5.00;2.98;;;;;;;25.30;53.71;99840.11;1780641;79;21134;-65
2022/06/05 08:36:29;;;;;;;5.12;3.72;;;;;;;25.31;53.75;99841.77;1780585;79;21064;-65
2022/06/05 08:42:16;;;;;;;3.47;2.70;;;;;;;25.34;53.77;99835.78;1771578;80;21279;-66
2022/06/05 08:44:54;;;;;;;5.45;2.85;;;;;;;25.37;53.78;99835.81;1783111;79;21001;-65
2022/06/05 08:48:01;;;;;;;4.72;2.70;;;;;;;25.39;53.80;99835.81;1777843;79;21249;-64
2022/06/05 08:50:36;;;;;;;6.40;2.70;;;;;;;25.42;53.82;99846.70;1768414;79;21804;-63
2022/06/05 08:53:11;;;;;;;3.50;2.90;;;;;;;25.43;53.87;99850.52;1777279;79;21041;-63
2022/06/05 08:55:43;;;;;;;6.28;3.12;;;;;;;25.45;53.85;99848.91;1766059;81;21068;-64
2022/06/05 08:58:32;;;;;;;3.70;2.62;;;;;;;25.47;53.82;99845.38;1778818;79;21502;-62
2022/06/05 09:01:10;;;;;;;6.60;2.70;;;;;;;25.48;53.79;99851.11;1778094;79;21046;-63
2022/06/05 09:03:52;;;;;;;3.42;2.80;;;;;;;25.51;53.74;99856.00;1783058;79;21037;-64
2022/06/05 09:06:28;;;;;;;4.17;2.95;;;;;;;25.53;53.72;99855.19;1770216;79;21065;-63
2022/06/05 09:08:56;;;;;;;5.95;3.20;;;;;;;25.55;53.76;99850.30;1779649;79;21494;-63
2022/06/05 09:11:28;;;;;;;4.12;3.00;;;;;;;25.58;53.75;99863.39;1768911;79;21501;-62
2022/06/05 09:14:06;;;;;;;4.90;2.97;;;;;;;25.58;53.59;99858.50;1772608;79;21130;-63
2022/06/05 09:16:40;;;;;;;6.87;3.58;;;;;;;25.60;53.37;99855.78;1794610;79;20995;-64
2022/06/05 09:19:06;;;;;;;3.75;2.60;;;;;;;25.61;53.38;99862.88;1736867;82;21128;-64
2022/06/05 09:21:38;;;;;;;4.80;3.00;;;;;;;25.63;53.27;99860.70;1736330;82;21033;-63
2022/06/05 09:24:23;;;;;;;6.43;3.03;;;;;;;25.65;53.00;99863.97;1725433;82;21045;-64
2022/06/05 09:27:02;;;;;;;5.47;2.70;;;;;;;25.65;52.81;99862.61;1749940;81;21124;-64
2022/06/05 09:30:06;;;;;;;3.70;3.08;;;;;;;25.67;52.66;99869.97;1741309;82;21576;-64
2022/06/05 09:33:17;;;;;;;2.77;2.27;;;;;;;25.67;52.57;99859.09;1749445;81;21584;-64
2022/06/05 09:35:52;;;;;;;3.30;2.52;;;;;;;25.67;52.57;99860.45;1722793;82;21089;-63
2022/06/05 09:38:37;;;;;;;3.05;2.75;;;;;;;25.69;52.50;99858.27;1736417;82;21056;-63
2022/06/05 09:41:27;;;;;;;4.03;2.30;;;;;;;25.70;52.40;99861.80;1738281;82;21161;-64
2022/06/05 09:44:05;;;;;;;3.20;2.52;;;;;;;25.72;52.36;99862.91;1708079;84;21041;-64
2022/06/05 09:47:01;;;;;;;4.97;3.22;;;;;;;25.71;52.46;99855.30;1713878;82;21026;-65
2022/06/05 09:49:38;;;;;;;5.05;3.20;;;;;;;25.72;52.49;99864.27;1772769;78;21034;-64
2022/06/05 09:52:15;;;;;;;5.00;3.15;;;;;;;25.72;52.65;99861.00;1752818;81;21003;-64
2022/06/05 09:55:14;;;;;;;3.22;2.90;;;;;;;25.73;52.71;99856.37;1752700;81;21127;-63
2022/06/05 10:03:46;;;;;;;5.92;4.03;;;;;;;25.78;52.84;99859.93;1835129;77;22495;-64
2022/06/05 10:06:41;;;;;;;4.92;3.62;;;;;;;25.76;52.88;99856.66;1795375;79;21004;-64
2022/06/05 10:09:17;;;;;;;5.05;4.15;;;;;;;25.77;52.92;99858.83;1793016;80;21510;-63
2022/06/05 10:12:01;;;;;;;6.83;4.28;;;;;;;25.78;53.02;99856.40;1803963;79;21009;-63
2022/06/05 10:14:51;;;;;;;5.15;4.33;;;;;;;25.79;53.03;99853.41;1771568;79;21498;-64
2022/06/05 10:17:33;;;;;;;6.20;3.42;;;;;;;25.79;53.11;99852.61;1778642;80;21047;-63
2022/06/05 10:20:31;;;;;;;9.03;4.08;;;;;;;25.79;53.10;99854.78;1793010;80;20897;-63
2022/06/05 10:23:14;;;;;;;7.30;3.58;;;;;;;25.81;53.12;99855.87;1786651;79;21150;-63
2022/06/05 10:26:01;;;;;;;5.25;3.65;;;;;;;25.81;53.10;99860.77;1793142;79;21029;-63
2022/06/05 10:28:30;;;;;;;5.70;3.85;;;;;;;25.82;53.17;99855.59;1795675;79;20997;-64
2022/06/05 10:31:12;;;;;;;6.60;3.67;;;;;;;25.84;53.12;99866.21;1783378;79;21010;-64
2022/06/05 10:33:59;;;;;;;6.83;3.98;;;;;;;25.83;53.12;99862.68;1749884;81;21037;-64
2022/06/05 10:36:32;;;;;;;5.67;3.87;;;;;;;25.85;53.10;99872.75;1737086;79;21156;-64
2022/06/05 10:39:19;;;;;;;5.58;3.58;;;;;;;25.86;53.05;99870.33;1816934;78;21008;-63
2022/06/05 10:41:57;;;;;;;6.47;3.87;;;;;;;25.89;53.03;99875.22;1806445;78;21040;-64
2022/06/05 10:44:38;;;;;;;9.65;4.60;;;;;;;25.90;53.08;99869.22;1813094;78;21035;-65
2022/06/05 10:47:19;;;;;;;4.00;3.37;;;;;;;25.92;53.04;99869.80;1819390;78;21063;-64
2022/06/05 10:49:51;;;;;;;7.05;4.10;;;;;;;25.94;53.01;99868.19;1799806;79;21137;-64
2022/06/05 10:52:32;;;;;;;5.62;3.77;;;;;;;25.97;53.04;99866.30;1808818;79;21521;-63
2022/06/05 10:55:16;;;;;;;7.67;4.00;;;;;;;25.99;53.02;99870.94;1796842;79;21477;-64
2022/06/05 10:57:55;;;;;;;5.05;3.67;;;;;;;26.00;52.96;99871.19;1764355;80;20978;-64
2022/06/05 11:00:33;;;;;;;7.10;4.58;;;;;;;26.01;52.85;99864.67;1792571;80;22091;-64
2022/06/05 11:03:59;;;;;;;8.20;3.70;;;;;;;26.03;52.78;99874.20;1794750;79;22036;-64
2022/06/05 11:06:55;;;;;;;8.78;4.00;;;;;;;26.04;52.71;99871.77;1761593;80;21026;-64
2022/06/05 11:09:39;;;;;;;10.78;3.65;;;;;;;26.05;52.64;99870.67;1761655;81;21014;-65
2022/06/05 11:15:40;;;;;;;6.28;3.98;;;;;;;26.08;52.54;99863.89;1792358;80;21030;-65
2022/06/05 11:18:15;;;;;;;6.15;3.72;;;;;;;26.08;52.44;99868.78;1791537;79;21145;-64
2022/06/05 11:20:45;;;;;;;6.17;3.37;;;;;;;26.09;52.38;99870.95;1790893;79;21030;-64
2022/06/05 11:23:19;;;;;;;5.85;3.50;;;;;;;26.12;52.26;99865.54;1744007;81;21038;-64
2022/06/05 11:26:28;;;;;;;7.78;3.27;;;;;;;26.13;52.17;99868.52;1761191;81;21536;-64
2022/06/05 11:29:12;;;;;;;4.97;3.05;;;;;;;26.15;52.05;99868.52;1761229;81;21557;-65
2022/06/05 11:31:56;;;;;;;5.83;3.17;;;;;;;26.17;51.95;99873.14;1761909;78;21139;-64
2022/06/05 11:34:53;;;;;;;4.50;3.10;;;;;;;26.20;51.88;99866.38;1760992;80;20974;-64
2022/06/05 11:37:59;;;;;;;6.00;3.45;;;;;;;26.21;51.76;99871.55;1750579;81;21006;-64
2022/06/05 11:40:55;;;;;;;4.92;2.98;;;;;;;26.24;51.69;99864.74;1761093;81;21061;-64
2022/06/05 11:43:39;;;;;;;4.90;3.12;;;;;;;26.28;51.59;99865.83;1761098;81;21010;-64
2022/06/05 11:46:29;;;;;;;4.12;3.20;;;;;;;26.31;51.53;99859.86;1777825;80;21144;-64
2022/06/05 11:49:13;;;;;;;3.77;3.17;;;;;;;26.35;51.48;99866.41;1792389;80;21026;-65
2022/06/05 11:52:17;;;;;;;4.35;3.15;;;;;;;26.38;51.40;99867.20;1791928;79;21037;-64
2022/06/05 11:54:49;;;;;;;5.45;3.08;;;;;;;26.41;51.30;99868.04;1790534;80;21019;-64
2022/06/05 11:57:36;;;;;;;4.12;3.12;;;;;;;26.46;51.18;99863.97;1761278;81;21584;-64
2022/06/05 12:00:33;;;;;;;2.85;2.55;;;;;;;26.49;51.04;99868.86;1769138;80;21743;-64
2022/06/05 12:03:22;;;;;;;4.15;2.92;;;;;;;26.53;50.90;99875.14;1785644;80;21020;-64
2022/06/05 12:06:17;;;;;;;4.00;3.08;;;;;;;26.56;50.75;99871.86;1779921;80;21078;-64
2022/06/05 12:08:53;;;;;;;3.30;2.87;;;;;;;26.57;50.60;99878.95;1779848;80;21012;-65
2022/06/05 12:11:26;;;;;;;6.15;3.12;;;;;;;26.58;50.48;99880.05;1779817;80;21187;-63
2022/06/05 12:14:23;;;;;;;3.05;2.75;;;;;;;26.59;50.36;99878.98;1778606;80;21766;-64
2022/06/05 12:17:42;;;;;;;3.05;2.75;;;;;;;26.61;50.28;99876.80;1779838;80;21085;-64
2022/06/05 12:20:25;;;;;;;3.37;2.95;;;;;;;26.63;50.21;99875.98;1778048;80;21054;-64
2022/06/05 12:23:16;;;;;;;3.58;3.22;;;;;;;26.64;50.14;99875.46;1818271;78;21051;-64
2022/06/05 12:26:08;;;;;;;4.42;3.22;;;;;;;26.65;50.07;99877.08;1818716;78;21032;-64
2022/06/05 12:28:41;;;;;;;4.00;2.67;;;;;;;26.68;49.99;99877.36;1789264;78;22029;-64
2022/06/05 12:31:28;;;;;;;3.47;2.65;;;;;;;26.68;49.84;99877.36;1763673;81;21065;-67